TAF and METAR

No METAR available for Garoua International Airport

TAF for Garoua International Airport

TAF FKKR 180500Z 1806/1818 VRB08KT 2500 HZ NSC
Report created 18. apr 07:00

between 18. apr 08:00 - 18. apr 20:00

wind 8 knots from various directions visibility 2500 meters haze No significant clouds.
Garoua International Airport in Cameroon at 244m

Latest 5 airports